Time;durP1;ratioP1;P1;durP2;ratioP2;P2;SDS_P1;SDS_P2;PMS_P1;PMS_P2;Temp;Humidity;BMP_temperature;BMP_pressure;BME280_temperature;BME280_humidity;BME280_pressure;Samples;Min_cycle;Max_cycle;Signal;HPM_P1;HPM_P2
2024/03/05 00:01:26;;;;;;;4.22;2.42;;;;;;;;;;10415650;28;20104;-51
2024/03/05 00:06:29;;;;;;;3.03;2.47;;;;;;;;;;10415304;28;20573;-52
2024/03/05 00:11:31;;;;;;;5.00;2.70;;;;;;;;;;10414377;28;20112;-53
2024/03/05 00:16:34;;;;;;;3.22;2.17;;;;;;;;;;10415106;28;20047;-53
2024/03/05 00:21:36;;;;;;;3.17;2.25;;;;;;;;;;10415673;28;20026;-51
2024/03/05 00:26:38;;;;;;;3.53;2.05;;;;;;;;;;10415104;28;20366;-53
2024/03/05 00:31:40;;;;;;;3.58;2.00;;;;;;;;;;10414753;28;20037;-51
2024/03/05 00:36:42;;;;;;;2.38;2.00;;;;;;;;;;10414839;28;20072;-52
2024/03/05 00:41:43;;;;;;;4.82;2.25;;;;;;;;;;10415386;28;20025;-52
2024/03/05 00:46:44;;;;;;;5.78;2.10;;;;;;;;;;10414756;28;20504;-54
2024/03/05 00:51:47;;;;;;;6.57;2.55;;;;;;;;;;10414381;28;20072;-51
2024/03/05 00:56:51;;;;;;;4.28;2.53;;;;;;;;;;10415046;28;20116;-53
2024/03/05 01:01:55;;;;;;;2.55;2.17;;;;;;;;;;10414320;28;20068;-53
2024/03/05 01:06:57;;;;;;;3.28;2.13;;;;;;;;;;10414045;28;20049;-53
2024/03/05 01:11:58;;;;;;;3.28;2.15;;;;;;;;;;10414701;28;20029;-51
2024/03/05 01:17:00;;;;;;;5.78;2.35;;;;;;;;;;10414001;28;20029;-54
2024/03/05 01:22:02;;;;;;;2.17;1.80;;;;;;;;;;10415943;28;20461;-51
2024/03/05 01:27:04;;;;;;;3.55;2.53;;;;;;;;;;10422029;28;20026;-53
2024/03/05 01:32:07;;;;;;;2.42;2.03;;;;;;;;;;10420929;28;20037;-52
2024/03/05 01:37:09;;;;;;;5.00;2.65;;;;;;;;;;10421696;28;20034;-52
2024/03/05 01:42:11;;;;;;;3.35;2.00;;;;;;;;;;10420776;28;20436;-52
2024/03/05 01:47:13;;;;;;;2.10;1.90;;;;;;;;;;10420599;28;20044;-54
2024/03/05 01:52:15;;;;;;;3.70;2.00;;;;;;;;;;10420949;28;20037;-54
2024/03/05 01:57:17;;;;;;;5.72;2.20;;;;;;;;;;10420928;28;20033;-54
2024/03/05 02:02:18;;;;;;;4.45;2.20;;;;;;;;;;10419799;28;20025;-54
2024/03/05 02:07:23;;;;;;;3.65;2.10;;;;;;;;;;10420530;28;20104;-54
2024/03/05 02:12:25;;;;;;;4.60;2.15;;;;;;;;;;10419523;28;20033;-52
2024/03/05 02:17:26;;;;;;;3.25;2.17;;;;;;;;;;10419559;28;20092;-54
2024/03/05 02:22:30;;;;;;;3.00;1.95;;;;;;;;;;10419810;28;20045;-53
2024/03/05 02:27:33;;;;;;;3.63;2.00;;;;;;;;;;10419155;28;20057;-50
2024/03/05 02:32:34;;;;;;;3.17;2.08;;;;;;;;;;10418095;28;20029;-51
2024/03/05 02:37:40;;;;;;;3.50;1.90;;;;;;;;;;10418559;28;20029;-50
2024/03/05 02:42:43;;;;;;;2.83;1.90;;;;;;;;;;10418362;28;20029;-53
2024/03/05 02:47:45;;;;;;;4.13;1.92;;;;;;;;;;10418427;28;20044;-50
2024/03/05 02:52:47;;;;;;;2.55;1.80;;;;;;;;;;10418489;28;20381;-47
2024/03/05 02:57:49;;;;;;;2.92;1.80;;;;;;;;;;10417836;28;20037;-50
2024/03/05 03:02:51;;;;;;;2.63;1.90;;;;;;;;;;10417467;28;20497;-53
2024/03/05 03:07:52;;;;;;;4.93;2.10;;;;;;;;;;10417532;28;20037;-53
2024/03/05 03:12:54;;;;;;;2.17;1.98;;;;;;;;;;10417129;28;20033;-49
2024/03/05 03:17:57;;;;;;;4.95;2.05;;;;;;;;;;10417186;28;20037;-55
2024/03/05 03:23:00;;;;;;;2.40;1.90;;;;;;;;;;10416844;28;20433;-52
2024/03/05 03:28:02;;;;;;;2.35;1.77;;;;;;;;;;10417369;28;20033;-53
2024/03/05 03:33:04;;;;;;;5.60;1.67;;;;;;;;;;10416379;28;20038;-51
2024/03/05 03:38:05;;;;;;;3.40;1.83;;;;;;;;;;10417057;28;20116;-52
2024/03/05 03:43:07;;;;;;;1.73;1.63;;;;;;;;;;10416178;28;20102;-51
2024/03/05 03:48:10;;;;;;;2.10;1.80;;;;;;;;;;10415977;28;20461;-49
2024/03/05 03:53:11;;;;;;;2.72;1.77;;;;;;;;;;10415751;28;20052;-50
2024/03/05 03:58:14;;;;;;;2.53;1.70;;;;;;;;;;10415782;28;20469;-51
2024/03/05 04:03:16;;;;;;;2.95;1.90;;;;;;;;;;10415383;28;20499;-50
2024/03/05 04:08:17;;;;;;;2.58;1.75;;;;;;;;;;10415468;28;20030;-52
2024/03/05 04:13:19;;;;;;;1.67;1.50;;;;;;;;;;10415950;28;20028;-53
2024/03/05 04:18:21;;;;;;;1.73;1.52;;;;;;;;;;10415435;28;20064;-54
2024/03/05 04:23:22;;;;;;;2.00;1.65;;;;;;;;;;10415682;28;20111;-53
2024/03/05 04:28:24;;;;;;;2.38;1.80;;;;;;;;;;10415160;28;20053;-53
2024/03/05 04:33:28;;;;;;;3.03;1.85;;;;;;;;;;10414902;28;20041;-53
2024/03/05 04:38:28;;;;;;;2.38;1.50;;;;;;;;;;10415409;28;20027;-53
2024/03/05 04:43:29;;;;;;;3.13;1.90;;;;;;;;;;10414798;28;20121;-52
2024/03/05 04:48:30;;;;;;;2.00;1.80;;;;;;;;;;10414806;28;20053;-52
2024/03/05 04:53:31;;;;;;;1.95;1.83;;;;;;;;;;10414870;28;20053;-52
2024/03/05 04:58:33;;;;;;;2.33;1.67;;;;;;;;;;10419722;28;20032;-53
2024/03/05 05:03:34;;;;;;;2.00;1.80;;;;;;;;;;10422066;28;20045;-52
2024/03/05 05:08:36;;;;;;;1.70;1.60;;;;;;;;;;10422078;28;20029;-51
2024/03/05 05:13:37;;;;;;;1.77;1.60;;;;;;;;;;10421971;28;20057;-51
2024/03/05 05:18:39;;;;;;;3.60;1.75;;;;;;;;;;10421809;28;20099;-52
2024/03/05 05:23:39;;;;;;;1.70;1.55;;;;;;;;;;10421647;28;20469;-52
2024/03/05 05:28:40;;;;;;;1.73;1.63;;;;;;;;;;10421461;28;20025;-52
2024/03/05 05:33:41;;;;;;;1.60;1.50;;;;;;;;;;10421160;28;20044;-49
2024/03/05 05:38:43;;;;;;;3.35;1.58;;;;;;;;;;10421102;28;20032;-56
2024/03/05 05:43:45;;;;;;;2.38;1.40;;;;;;;;;;10421438;28;20025;-50
2024/03/05 05:48:50;;;;;;;1.50;1.40;;;;;;;;;;10420360;28;20028;-52
2024/03/05 05:53:51;;;;;;;1.33;1.20;;;;;;;;;;10420826;28;20021;-54
2024/03/05 05:58:52;;;;;;;3.25;1.42;;;;;;;;;;10420153;28;20025;-50
2024/03/05 06:03:53;;;;;;;3.70;1.67;;;;;;;;;;10419792;28;20037;-50
2024/03/05 06:08:54;;;;;;;1.58;1.40;;;;;;;;;;10418451;28;20025;-54
2024/03/05 06:13:55;;;;;;;3.55;1.58;;;;;;;;;;10419590;28;20029;-51
2024/03/05 06:18:58;;;;;;;1.60;1.50;;;;;;;;;;10420067;28;20029;-50
2024/03/05 06:23:59;;;;;;;2.97;1.80;;;;;;;;;;10419890;28;20034;-48
2024/03/05 06:29:06;;;;;;;1.77;1.60;;;;;;;;;;10419077;28;20112;-51
2024/03/05 06:34:10;;;;;;;1.60;1.38;;;;;;;;;;10418838;28;20033;-52
2024/03/05 06:39:19;;;;;;;1.60;1.40;;;;;;;;;;10418704;28;20029;-49
2024/03/05 06:44:25;;;;;;;;;;;;;;;;;;10418899;28;20029;-50
2024/03/05 06:49:37;;;;;;;1.63;1.52;;;;;;;;;;10418212;28;19917;-51
2024/03/05 06:59:57;;;;;;;2.65;1.65;;;;;;;;;;10410970;28;20073;-60
2024/03/05 07:04:58;;;;;;;2.60;1.70;;;;;;;;;;10409440;28;20112;-53
2024/03/05 07:09:58;;;;;;;3.35;1.75;;;;;;;;;;10410473;28;20601;-57
2024/03/05 07:14:59;;;;;;;8.05;2.55;;;;;;;;;;10409429;28;20034;-56
2024/03/05 07:20:03;;;;;;;4.50;2.33;;;;;;;;;;10407506;28;20038;-53
2024/03/05 07:25:03;;;;;;;3.30;2.03;;;;;;;;;;10407844;28;20451;-56
2024/03/05 07:30:04;;;;;;;8.05;2.67;;;;;;;;;;10408099;28;20465;-58
2024/03/05 07:35:08;;;;;;;11.85;2.47;;;;;;;;;;10407999;28;20032;-57
2024/03/05 07:40:15;;;;;;;10.52;2.90;;;;;;;;;;10409704;28;20049;-59
2024/03/05 07:45:17;;;;;;;4.68;2.58;;;;;;;;;;10409799;28;20150;-55
2024/03/05 07:50:17;;;;;;;7.43;2.50;;;;;;;;;;10409112;28;20087;-60
2024/03/05 07:55:18;;;;;;;4.22;2.47;;;;;;;;;;10408975;28;20029;-55
2024/03/05 08:00:22;;;;;;;5.93;3.00;;;;;;;;;;10408909;28;20034;-54
2024/03/05 08:05:23;;;;;;;5.15;2.40;;;;;;;;;;10408463;28;20052;-60
2024/03/05 08:10:24;;;;;;;5.13;2.63;;;;;;;;;;10408411;28;20036;-57
2024/03/05 08:15:26;;;;;;;10.07;2.67;;;;;;;;;;10407999;28;20116;-54
2024/03/05 08:20:26;;;;;;;9.52;2.67;;;;;;;;;;10409218;28;20026;-55
2024/03/05 08:25:27;;;;;;;9.02;2.55;;;;;;;;;;10408002;28;20026;-53
2024/03/05 08:30:32;;;;;;;7.68;2.60;;;;;;;;;;10408338;28;20033;-52
2024/03/05 08:35:32;;;;;;;4.22;2.58;;;;;;;;;;10416298;28;20029;-53
2024/03/05 08:40:35;;;;;;;6.28;2.88;;;;;;;;;;10416122;28;20470;-51
2024/03/05 08:45:37;;;;;;;8.27;2.88;;;;;;;;;;10416331;28;20025;-51
2024/03/05 08:50:37;;;;;;;7.45;3.13;;;;;;;;;;10416076;28;20276;-55
2024/03/05 08:55:37;;;;;;;4.68;2.22;;;;;;;;;;10415572;28;20260;-53
2024/03/05 09:00:38;;;;;;;3.92;2.50;;;;;;;;;;10415680;28;20026;-53
2024/03/05 09:05:38;;;;;;;8.23;2.67;;;;;;;;;;10415354;28;20046;-53
2024/03/05 09:10:39;;;;;;;4.20;2.43;;;;;;;;;;10415326;28;20469;-51
2024/03/05 09:15:40;;;;;;;4.00;2.42;;;;;;;;;;10415302;28;20450;-53
2024/03/05 09:20:41;;;;;;;3.72;2.42;;;;;;;;;;10415348;28;20025;-51
2024/03/05 09:25:42;;;;;;;3.45;2.45;;;;;;;;;;10414971;28;20032;-53
2024/03/05 09:30:42;;;;;;;4.30;2.30;;;;;;;;;;10414264;28;20362;-48
2024/03/05 09:35:42;;;;;;;3.17;2.37;;;;;;;;;;10414133;28;20029;-53
2024/03/05 09:40:43;;;;;;;5.37;2.80;;;;;;;;;;10414456;28;20431;-50
2024/03/05 09:45:45;;;;;;;4.05;2.75;;;;;;;;;;10413927;28;21012;-51
2024/03/05 09:50:49;;;;;;;7.32;3.08;;;;;;;;;;10414086;28;20516;-49
2024/03/05 09:55:52;;;;;;;9.65;3.33;;;;;;;;;;10413835;28;20025;-52
2024/03/05 10:00:54;;;;;;;4.38;2.83;;;;;;;;;;10414149;28;20025;-53
2024/03/05 10:05:54;;;;;;;5.38;2.28;;;;;;;;;;10411767;28;20326;-51
2024/03/05 10:11:02;;;;;;;5.07;2.53;;;;;;;;;;10412541;28;20530;-52
2024/03/05 10:16:24;;;;;;;4.38;2.30;;;;;;;;;;10413006;28;20439;-52
2024/03/05 10:21:25;;;;;;;4.68;2.70;;;;;;;;;;10412307;28;20041;-52
2024/03/05 10:26:28;;;;;;;5.75;2.40;;;;;;;;;;10412040;28;20018;-53
2024/03/05 10:31:28;;;;;;;4.55;1.98;;;;;;;;;;10411700;28;20021;-50
2024/03/05 10:36:36;;;;;;;3.15;2.28;;;;;;;;;;10411959;28;20021;-52
2024/03/05 10:41:37;;;;;;;3.07;2.13;;;;;;;;;;10410838;28;20420;-52
2024/03/05 10:46:38;;;;;;;5.35;2.50;;;;;;;;;;10411302;28;20440;-52
2024/03/05 10:51:39;;;;;;;5.65;2.15;;;;;;;;;;10411306;28;20025;-53
2024/03/05 10:56:40;;;;;;;7.03;2.78;;;;;;;;;;10410254;28;20025;-50
2024/03/05 11:01:40;;;;;;;3.50;2.33;;;;;;;;;;10409416;28;20026;-49
2024/03/05 11:06:41;;;;;;;3.50;2.17;;;;;;;;;;10410711;28;20095;-52
2024/03/05 11:11:45;;;;;;;6.32;2.40;;;;;;;;;;10410804;28;20032;-53
2024/03/05 11:17:01;;;;;;;3.45;2.10;;;;;;;;;;10410759;28;20461;-53
2024/03/05 11:22:20;;;;;;;3.70;2.67;;;;;;;;;;10408720;28;20036;-54
2024/03/05 11:27:24;;;;;;;4.82;2.60;;;;;;;;;;10409703;28;20029;-53
2024/03/05 11:32:28;;;;;;;4.47;2.40;;;;;;;;;;10409528;28;20573;-52
2024/03/05 11:37:28;;;;;;;3.72;2.30;;;;;;;;;;10408788;28;20372;-52
2024/03/05 11:42:32;;;;;;;5.22;2.30;;;;;;;;;;10407073;28;20021;-53
2024/03/05 11:47:33;;;;;;;3.28;1.98;;;;;;;;;;10408703;28;20033;-53
2024/03/05 11:52:35;;;;;;;2.80;2.22;;;;;;;;;;10407846;28;20045;-53
2024/03/05 11:57:35;;;;;;;3.03;2.00;;;;;;;;;;10409443;28;20025;-53
2024/03/05 12:02:36;;;;;;;2.38;2.08;;;;;;;;;;10408828;28;20033;-52
2024/03/05 12:07:38;;;;;;;4.37;2.40;;;;;;;;;;10408978;28;20408;-54
2024/03/05 12:12:38;;;;;;;2.97;2.03;;;;;;;;;;10406908;28;20997;-55
2024/03/05 12:17:39;;;;;;;3.25;2.50;;;;;;;;;;10406754;28;20036;-59
2024/03/05 12:22:49;;;;;;;7.65;2.70;;;;;;;;;;10407851;28;20065;-58
2024/03/05 12:27:49;;;;;;;3.58;2.10;;;;;;;;;;10408359;28;20033;-54
2024/03/05 12:32:54;;;;;;;2.63;2.20;;;;;;;;;;10408170;28;20033;-54
2024/03/05 12:37:55;;;;;;;2.75;2.25;;;;;;;;;;10407491;28;20026;-55
2024/03/05 12:43:05;;;;;;;4.22;2.17;;;;;;;;;;10407178;28;20029;-52
2024/03/05 12:48:08;;;;;;;2.90;1.90;;;;;;;;;;10406861;28;20028;-56
2024/03/05 12:53:09;;;;;;;3.47;1.98;;;;;;;;;;10407611;28;20037;-56
2024/03/05 12:58:12;;;;;;;3.35;2.13;;;;;;;;;;10407457;28;20496;-52
2024/03/05 13:03:13;;;;;;;3.22;2.40;;;;;;;;;;10407579;28;20397;-51
2024/03/05 13:08:14;;;;;;;3.65;2.35;;;;;;;;;;10407793;28;20567;-56
2024/03/05 13:13:14;;;;;;;3.22;2.03;;;;;;;;;;10407410;28;20033;-53
2024/03/05 13:18:15;;;;;;;3.53;2.25;;;;;;;;;;10409171;28;20424;-55
2024/03/05 13:23:16;;;;;;;5.15;2.10;;;;;;;;;;10415340;28;20030;-54
2024/03/05 13:28:16;;;;;;;2.10;1.70;;;;;;;;;;10414852;28;20022;-55
2024/03/05 13:33:17;;;;;;;3.30;1.97;;;;;;;;;;10414085;28;20392;-55
2024/03/05 13:38:17;;;;;;;5.22;2.10;;;;;;;;;;10414409;28;20430;-58
2024/03/05 13:43:22;;;;;;;5.53;1.83;;;;;;;;;;10414243;28;20028;-53
2024/03/05 13:48:22;;;;;;;3.13;2.22;;;;;;;;;;10413466;28;20694;-53
2024/03/05 13:53:23;;;;;;;2.65;1.77;;;;;;;;;;10413486;28;20261;-53
2024/03/05 13:58:23;;;;;;;2.55;1.90;;;;;;;;;;10413254;28;20025;-52
2024/03/05 14:03:24;;;;;;;2.25;1.50;;;;;;;;;;10412004;28;20400;-53
2024/03/05 14:08:24;;;;;;;3.53;1.85;;;;;;;;;;10412806;28;20029;-53
2024/03/05 14:13:24;;;;;;;4.07;1.93;;;;;;;;;;10411246;28;20033;-53
2024/03/05 14:18:25;;;;;;;3.53;1.83;;;;;;;;;;10412492;28;20439;-53
2024/03/05 14:23:25;;;;;;;2.67;1.90;;;;;;;;;;10412161;28;20470;-54
2024/03/05 14:28:26;;;;;;;2.17;1.97;;;;;;;;;;10411140;28;20771;-51
2024/03/05 14:33:26;;;;;;;4.97;1.93;;;;;;;;;;10411749;28;20473;-56
2024/03/05 14:38:26;;;;;;;2.85;2.03;;;;;;;;;;10412116;28;21136;-53
2024/03/05 14:43:27;;;;;;;3.15;1.98;;;;;;;;;;10410648;28;20029;-53
2024/03/05 14:48:27;;;;;;;2.70;2.00;;;;;;;;;;10411252;28;20082;-53
2024/03/05 14:53:28;;;;;;;1.77;1.65;;;;;;;;;;10410415;28;20041;-53
2024/03/05 14:58:29;;;;;;;4.45;2.08;;;;;;;;;;10410979;28;20224;-53
2024/03/05 15:03:32;;;;;;;3.83;1.77;;;;;;;;;;10410114;28;20300;-56
2024/03/05 15:08:32;;;;;;;2.75;1.83;;;;;;;;;;10408898;28;20049;-51
2024/03/05 15:13:32;;;;;;;3.38;2.05;;;;;;;;;;10409932;28;20041;-52
2024/03/05 15:18:33;;;;;;;2.67;1.90;;;;;;;;;;10409678;28;20021;-52
2024/03/05 15:23:34;;;;;;;6.93;2.00;;;;;;;;;;10410958;28;20079;-51
2024/03/05 15:28:36;;;;;;;3.40;1.98;;;;;;;;;;10409927;28;20451;-51
2024/03/05 15:33:41;;;;;;;3.40;1.80;;;;;;;;;;10410092;28;20061;-52
2024/03/05 15:38:41;;;;;;;2.72;2.00;;;;;;;;;;10409094;28;20116;-53
2024/03/05 15:43:41;;;;;;;2.70;1.87;;;;;;;;;;10408293;28;20041;-52
2024/03/05 15:48:42;;;;;;;2.43;1.90;;;;;;;;;;10409857;28;20442;-52
2024/03/05 15:53:43;;;;;;;2.23;1.60;;;;;;;;;;10408976;28;20462;-58
2024/03/05 16:03:44;;;;;;;3.72;1.70;;;;;;;;;;10408710;28;20049;-51
2024/03/05 16:08:46;;;;;;;3.05;1.67;;;;;;;;;;10406869;28;20354;-53
2024/03/05 16:13:46;;;;;;;6.68;2.20;;;;;;;;;;10407225;28;20040;-53
2024/03/05 16:18:47;;;;;;;2.28;1.80;;;;;;;;;;10407303;28;20477;-53
2024/03/05 16:23:47;;;;;;;3.20;1.70;;;;;;;;;;10406634;28;20084;-53
2024/03/05 16:28:49;;;;;;;2.45;1.92;;;;;;;;;;10407065;28;20055;-53
2024/03/05 16:33:49;;;;;;;2.53;1.85;;;;;;;;;;10406517;28;20025;-53
2024/03/05 16:38:51;;;;;;;1.77;1.60;;;;;;;;;;10406412;28;20026;-53
2024/03/05 16:43:53;;;;;;;1.58;1.42;;;;;;;;;;10406228;28;20447;-52
2024/03/05 16:48:54;;;;;;;2.28;1.80;;;;;;;;;;10405202;28;20477;-53
2024/03/05 16:53:55;;;;;;;1.50;1.40;;;;;;;;;;10407091;28;20038;-60
2024/03/05 16:58:56;;;;;;;3.78;1.50;;;;;;;;;;10394895;28;20462;-56
2024/03/05 17:04:00;;;;;;;3.00;1.58;;;;;;;;;;10374900;28;1118648;-55
2024/03/05 17:09:01;;;;;;;2.97;1.63;;;;;;;;;;10415957;28;20039;-55
2024/03/05 17:14:02;;;;;;;2.38;1.50;;;;;;;;;;10427483;23;20057;-62
2024/03/05 17:19:02;;;;;;;1.50;1.40;;;;;;;;;;10414762;28;20680;-62
2024/03/05 17:24:04;;;;;;;2.22;1.70;;;;;;;;;;10414521;28;20041;-63
2024/03/05 17:29:07;;;;;;;2.00;1.58;;;;;;;;;;10413426;28;20025;-60
2024/03/05 17:34:08;;;;;;;1.55;1.40;;;;;;;;;;10413718;28;20029;-59
2024/03/05 17:39:10;;;;;;;4.93;1.58;;;;;;;;;;10414159;28;20034;-59
2024/03/05 17:44:12;;;;;;;2.78;2.10;;;;;;;;;;10412691;28;20022;-60
2024/03/05 17:49:15;;;;;;;1.88;1.55;;;;;;;;;;10412951;28;20385;-60
2024/03/05 17:54:15;;;;;;;7.00;1.50;;;;;;;;;;10413672;28;20028;-61
2024/03/05 17:59:16;;;;;;;2.00;1.25;;;;;;;;;;10413517;28;20581;-60
2024/03/05 18:04:16;;;;;;;1.65;1.52;;;;;;;;;;10412470;28;20052;-60
2024/03/05 18:09:19;;;;;;;1.73;1.63;;;;;;;;;;10412253;28;20026;-60
2024/03/05 18:14:21;;;;;;;1.55;1.45;;;;;;;;;;10411955;28;20986;-61
2024/03/05 18:19:22;;;;;;;2.10;1.80;;;;;;;;;;10411374;28;20044;-61
2024/03/05 18:24:23;;;;;;;2.30;1.45;;;;;;;;;;10410776;28;20028;-60
2024/03/05 18:29:23;;;;;;;5.05;1.80;;;;;;;;;;10411401;28;20489;-60
2024/03/05 18:34:26;;;;;;;1.75;1.50;;;;;;;;;;10411628;28;20029;-60
2024/03/05 18:39:26;;;;;;;2.88;1.70;;;;;;;;;;10410808;28;20112;-61
2024/03/05 18:44:27;;;;;;;2.03;1.60;;;;;;;;;;10411016;28;20028;-61
2024/03/05 18:49:27;;;;;;;2.42;1.70;;;;;;;;;;10411583;28;20787;-64
2024/03/05 18:54:28;;;;;;;2.85;1.67;;;;;;;;;;10410770;28;20029;-61
2024/03/05 18:59:29;;;;;;;2.33;1.80;;;;;;;;;;10411154;28;20055;-63
2024/03/05 19:04:29;;;;;;;3.72;1.80;;;;;;;;;;10411219;28;20037;-64
2024/03/05 19:09:30;;;;;;;4.40;1.77;;;;;;;;;;10410927;28;20579;-61
2024/03/05 19:14:31;;;;;;;3.00;2.00;;;;;;;;;;10409896;28;20048;-60
2024/03/05 19:19:32;;;;;;;2.45;1.60;;;;;;;;;;10410114;28;20040;-61
2024/03/05 19:24:33;;;;;;;1.58;1.48;;;;;;;;;;10409413;28;20036;-60
2024/03/05 19:29:33;;;;;;;4.32;2.10;;;;;;;;;;10409482;28;20513;-63
2024/03/05 19:34:34;;;;;;;2.40;1.50;;;;;;;;;;10409034;28;20056;-61
2024/03/05 19:39:35;;;;;;;3.33;1.70;;;;;;;;;;10408882;28;20045;-64
2024/03/05 19:44:35;;;;;;;2.35;1.85;;;;;;;;;;10409306;28;20083;-61
2024/03/05 19:49:36;;;;;;;1.60;1.50;;;;;;;;;;10409265;28;20086;-61
2024/03/05 19:54:37;;;;;;;2.60;1.70;;;;;;;;;;10408645;28;20544;-61
2024/03/05 19:59:37;;;;;;;2.17;1.90;;;;;;;;;;10408630;28;20457;-61
2024/03/05 20:04:38;;;;;;;1.92;1.70;;;;;;;;;;10409043;28;20035;-61
2024/03/05 20:09:38;;;;;;;3.00;1.80;;;;;;;;;;10408911;28;20031;-61
2024/03/05 20:14:39;;;;;;;1.67;1.58;;;;;;;;;;10407815;28;20041;-62
2024/03/05 20:19:42;;;;;;;3.28;1.70;;;;;;;;;;10408154;28;20033;-64
2024/03/05 20:24:42;;;;;;;2.33;1.65;;;;;;;;;;10393284;28;20044;-62
2024/03/05 20:29:43;;;;;;;14.57;2.40;;;;;;;;;;10406680;28;20385;-61
2024/03/05 20:34:45;;;;;;;5.93;2.20;;;;;;;;;;10407540;28;20025;-61
2024/03/05 20:39:48;;;;;;;5.40;2.10;;;;;;;;;;10407413;28;20481;-61
2024/03/05 20:44:49;;;;;;;6.70;2.03;;;;;;;;;;10407763;28;20045;-64
2024/03/05 20:49:50;;;;;;;9.48;2.38;;;;;;;;;;10407096;28;20459;-62
2024/03/05 20:54:51;;;;;;;3.55;2.03;;;;;;;;;;10407153;28;20022;-61
2024/03/05 20:59:51;;;;;;;3.90;2.22;;;;;;;;;;10406285;28;20087;-63
2024/03/05 21:04:52;;;;;;;7.80;2.03;;;;;;;;;;10407420;28;20021;-61
2024/03/05 21:09:52;;;;;;;6.75;2.20;;;;;;;;;;10407212;28;20032;-61
2024/03/05 21:14:53;;;;;;;4.55;1.75;;;;;;;;;;10406811;28;20053;-61
2024/03/05 21:19:54;;;;;;;2.93;2.03;;;;;;;;;;10406848;28;20030;-62
2024/03/05 21:24:54;;;;;;;2.33;1.90;;;;;;;;;;10406586;28;20446;-61
2024/03/05 21:29:55;;;;;;;4.40;2.20;;;;;;;;;;10406921;28;20030;-61
2024/03/05 21:34:56;;;;;;;4.25;2.28;;;;;;;;;;10406744;28;20034;-62
2024/03/05 21:39:58;;;;;;;2.60;1.77;;;;;;;;;;10410479;28;20026;-61
2024/03/05 21:44:58;;;;;;;4.90;1.90;;;;;;;;;;10414271;28;20030;-61
2024/03/05 21:49:59;;;;;;;4.78;2.13;;;;;;;;;;10413566;28;20416;-61
2024/03/05 21:55:00;;;;;;;5.03;2.15;;;;;;;;;;10412996;28;20053;-64
2024/03/05 22:00:01;;;;;;;8.37;2.07;;;;;;;;;;10413270;28;20033;-62
2024/03/05 22:05:04;;;;;;;3.80;1.80;;;;;;;;;;10413329;28;20521;-61
2024/03/05 22:10:08;;;;;;;2.28;1.63;;;;;;;;;;10411948;28;20061;-62
2024/03/05 22:15:09;;;;;;;3.47;1.95;;;;;;;;;;10410296;28;20137;-63
2024/03/05 22:20:13;;;;;;;5.65;2.00;;;;;;;;;;10411474;28;20180;-61
2024/03/05 22:25:13;;;;;;;4.20;1.77;;;;;;;;;;10411093;28;20416;-61
2024/03/05 22:30:14;;;;;;;4.85;2.03;;;;;;;;;;10410889;28;20028;-61
2024/03/05 22:35:14;;;;;;;2.47;1.80;;;;;;;;;;10410868;28;20021;-63
2024/03/05 22:40:16;;;;;;;3.20;1.90;;;;;;;;;;10411154;28;20036;-64
2024/03/05 22:45:19;;;;;;;5.00;1.90;;;;;;;;;;10411605;28;20108;-63
2024/03/05 22:50:21;;;;;;;2.75;1.85;;;;;;;;;;10409971;28;20091;-61
2024/03/05 22:55:21;;;;;;;3.00;2.00;;;;;;;;;;10408417;28;20633;-65
2024/03/05 23:00:22;;;;;;;2.80;1.90;;;;;;;;;;10410740;28;20104;-63
2024/03/05 23:05:23;;;;;;;4.35;2.17;;;;;;;;;;10410286;28;20028;-61
2024/03/05 23:10:27;;;;;;;1.92;1.60;;;;;;;;;;10409812;28;20083;-62
2024/03/05 23:15:27;;;;;;;2.97;1.70;;;;;;;;;;10408436;28;20397;-61
2024/03/05 23:20:28;;;;;;;3.95;2.15;;;;;;;;;;10409459;28;20041;-61
2024/03/05 23:25:28;;;;;;;4.65;2.13;;;;;;;;;;10409442;28;20040;-62
2024/03/05 23:30:29;;;;;;;5.50;1.67;;;;;;;;;;10408976;28;20391;-61
2024/03/05 23:35:30;;;;;;;7.25;1.80;;;;;;;;;;10409783;28;20030;-61
2024/03/05 23:40:31;;;;;;;8.98;2.42;;;;;;;;;;10409882;28;20037;-62
2024/03/05 23:45:32;;;;;;;4.85;2.00;;;;;;;;;;10409318;28;20035;-67
2024/03/05 23:50:32;;;;;;;7.65;2.03;;;;;;;;;;10409159;28;20022;-68
2024/03/05 23:55:33;;;;;;;9.33;2.20;;;;;;;;;;10408976;28;20045;-64
